Time;durP1;ratioP1;P1;durP2;ratioP2;P2;SDS_P1;SDS_P2;PMS_P1;PMS_P2;Temp;Humidity;BMP_temperature;BMP_pressure;BME280_temperature;BME280_humidity;BME280_pressure;Samples;Min_cycle;Max_cycle;Signal;HPM_P1;HPM_P2
2023/01/31 00:01:18;;;;;;;42.58;6.43;;;;;;;3.73;93.97;101997.69;5100855;28;20095;-52
2023/01/31 00:03:46;;;;;;;45.35;7.00;;;;;;;3.75;93.65;102001.06;5097339;28;20044;-51
2023/01/31 00:06:21;;;;;;;29.42;5.03;;;;;;;3.71;93.97;101998.66;5090703;28;20058;-52
2023/01/31 00:08:50;;;;;;;39.22;6.05;;;;;;;3.68;93.32;101998.84;5065539;28;20048;-53
2023/01/31 00:11:21;;;;;;;43.70;5.72;;;;;;;3.77;93.37;102008.88;5089742;28;20070;-51
2023/01/31 00:13:48;;;;;;;34.88;5.35;;;;;;;3.81;93.03;102007.78;5081547;28;20486;-52
2023/01/31 00:16:16;;;;;;;41.78;6.15;;;;;;;3.70;93.11;102003.09;5088833;28;20044;-51
2023/01/31 00:18:43;;;;;;;47.17;5.80;;;;;;;3.73;93.29;101997.69;5092856;28;20077;-51
2023/01/31 00:21:15;;;;;;;40.55;5.53;;;;;;;3.81;92.96;102007.78;5088813;28;20063;-50
2023/01/31 00:23:43;;;;;;;38.70;5.50;;;;;;;3.75;93.15;102011.56;5084481;28;20048;-52
2023/01/31 00:26:13;;;;;;;41.25;6.25;;;;;;;3.70;93.20;102013.56;5084987;28;20071;-50
2023/01/31 00:28:41;;;;;;;37.30;5.50;;;;;;;3.68;94.19;102010.19;5093426;28;20051;-50
2023/01/31 00:31:11;;;;;;;40.88;5.80;;;;;;;3.72;93.57;102010.88;5087491;28;20071;-51
2023/01/31 00:33:41;;;;;;;36.00;5.45;;;;;;;3.74;93.89;102022.16;5092308;28;20051;-51
2023/01/31 00:36:11;;;;;;;32.17;4.93;;;;;;;3.75;93.74;102005.47;5087489;28;20106;-51
2023/01/31 00:38:38;;;;;;;48.10;5.88;;;;;;;3.75;93.38;102018.59;5072128;28;20406;-52
2023/01/31 00:41:05;;;;;;;44.08;5.38;;;;;;;3.77;92.83;102009.72;5087905;28;20052;-51
2023/01/31 00:43:32;;;;;;;38.58;5.55;;;;;;;3.78;92.98;102006.19;5090064;28;20043;-50
2023/01/31 00:45:59;;;;;;;42.80;5.88;;;;;;;3.84;92.49;102011.09;5092956;28;20076;-53
2023/01/31 00:48:27;;;;;;;41.22;5.63;;;;;;;3.81;93.12;102010.41;5086871;28;20097;-53
2023/01/31 00:50:53;;;;;;;49.10;7.20;;;;;;;3.77;92.26;102008.88;5093481;28;20093;-51
2023/01/31 00:53:24;;;;;;;46.03;6.35;;;;;;;3.58;92.92;102011.56;5068424;28;20490;-52
2023/01/31 00:55:53;;;;;;;37.83;5.95;;;;;;;3.53;93.97;102013.56;5083593;28;20082;-51
2023/01/31 00:58:20;;;;;;;34.97;5.90;;;;;;;3.52;93.42;102011.91;5084130;28;20444;-51
2023/01/31 01:00:47;;;;;;;35.53;5.35;;;;;;;3.33;94.56;102007.56;5091862;28;20040;-52
2023/01/31 01:03:14;;;;;;;40.30;6.35;;;;;;;3.48;93.73;102013.81;5095213;28;20040;-52
2023/01/31 01:05:41;;;;;;;47.83;5.72;;;;;;;3.39;94.29;102012.50;5101875;28;20051;-53
2023/01/31 01:08:08;;;;;;;37.38;5.65;;;;;;;3.37;94.47;102013.50;5079259;28;20824;-53
2023/01/31 01:10:36;;;;;;;38.70;5.45;;;;;;;3.33;93.86;102006.69;5110924;28;20047;-51
2023/01/31 01:13:04;;;;;;;32.85;5.38;;;;;;;3.45;93.77;102006.94;5102758;28;20040;-51
2023/01/31 01:15:31;;;;;;;30.00;5.30;;;;;;;3.31;94.28;102001.56;5097271;28;20409;-52
2023/01/31 01:17:58;;;;;;;33.55;5.68;;;;;;;3.34;94.00;102004.00;5108202;28;20059;-49
2023/01/31 01:20:25;;;;;;;38.03;6.07;;;;;;;3.17;94.61;102006.63;5088362;28;20135;-51
2023/01/31 01:22:52;;;;;;;33.50;5.93;;;;;;;3.27;94.71;101999.97;5083899;28;20746;-50
2023/01/31 01:25:19;;;;;;;37.03;5.43;;;;;;;3.28;94.28;102006.94;5087791;28;20063;-52
2023/01/31 01:27:46;;;;;;;36.20;4.53;;;;;;;3.27;93.74;102005.22;5092475;28;20554;-52
2023/01/31 01:30:13;;;;;;;37.55;5.10;;;;;;;3.23;93.96;102011.56;5084044;28;20048;-52
2023/01/31 01:32:39;;;;;;;41.15;5.07;;;;;;;3.28;93.78;102011.34;5090667;28;20539;-51
2023/01/31 01:35:06;;;;;;;33.72;5.28;;;;;;;3.24;94.45;102005.41;5088100;28;20268;-53
2023/01/31 01:37:33;;;;;;;35.65;5.20;;;;;;;3.29;93.93;101995.50;5078458;28;20044;-51
2023/01/31 01:40:00;;;;;;;37.00;5.25;;;;;;;3.39;93.81;101999.38;5072590;28;20493;-53
2023/01/31 01:42:34;;;;;;;36.58;5.70;;;;;;;3.28;93.74;102000.84;5092172;28;20044;-52
2023/01/31 01:45:14;;;;;;;29.10;5.10;;;;;;;3.26;94.07;101991.28;5081631;28;20135;-51
2023/01/31 01:47:49;;;;;;;35.55;5.50;;;;;;;3.29;93.69;101995.50;5068141;28;20052;-52
2023/01/31 01:50:37;;;;;;;37.13;5.53;;;;;;;3.29;93.97;101992.88;5071626;28;20131;-51
2023/01/31 01:53:10;;;;;;;38.00;5.80;;;;;;;3.31;93.47;101993.69;5070192;28;20468;-52
2023/01/31 01:55:42;;;;;;;36.50;5.97;;;;;;;3.15;94.19;101990.13;5082316;28;20101;-52
2023/01/31 01:58:32;;;;;;;37.78;6.28;;;;;;;3.24;93.84;101982.63;5089260;28;20135;-52
2023/01/31 02:00:59;;;;;;;52.10;5.55;;;;;;;3.25;93.78;101984.31;5091618;28;20044;-51
2023/01/31 02:03:26;;;;;;;39.90;5.35;;;;;;;3.41;93.32;101994.91;5100883;28;20044;-51
2023/01/31 02:05:58;;;;;;;37.97;5.28;;;;;;;3.39;92.98;101993.28;5091101;28;20137;-50
2023/01/31 02:08:30;;;;;;;41.25;6.43;;;;;;;3.33;93.44;101991.84;5083953;28;20044;-51
2023/01/31 02:11:23;;;;;;;41.30;6.30;;;;;;;3.34;93.14;102001.38;5074441;28;20043;-50
2023/01/31 02:14:00;;;;;;;39.53;6.10;;;;;;;3.37;93.02;101998.63;5086614;28;20294;-50
2023/01/31 02:16:26;;;;;;;30.77;5.30;;;;;;;3.45;92.71;101991.19;5091004;28;20448;-50
2023/01/31 02:18:55;;;;;;;34.60;5.18;;;;;;;3.41;92.81;101994.06;5084240;28;20032;-50
2023/01/31 02:21:41;;;;;;;36.97;5.97;;;;;;;3.31;93.21;101992.81;5087820;28;20044;-50
2023/01/31 02:24:48;;;;;;;33.50;5.70;;;;;;;3.34;93.64;101990.06;5077884;28;20036;-51
2023/01/31 02:27:48;;;;;;;30.95;5.95;;;;;;;3.29;93.44;101990.25;5094199;28;20066;-50
2023/01/31 02:30:54;;;;;;;46.35;5.72;;;;;;;3.22;94.25;101994.13;5100450;28;20044;-51
2023/01/31 02:33:45;;;;;;;41.53;6.15;;;;;;;3.15;93.95;101992.75;5090045;28;20048;-51
2023/01/31 02:36:28;;;;;;;33.83;7.37;;;;;;;3.21;94.04;101993.28;5110191;27;20054;-50
2023/01/31 02:42:22;;;;;;;39.33;6.43;;;;;;;3.29;93.58;101999.91;5090503;27;20356;-52
2023/01/31 02:45:03;;;;;;;43.22;6.55;;;;;;;3.22;93.44;102000.22;5072540;28;20044;-49
2023/01/31 02:48:09;;;;;;;40.65;6.07;;;;;;;3.33;93.38;102015.44;5078037;28;20522;-50
2023/01/31 02:50:52;;;;;;;36.20;6.00;;;;;;;3.34;93.14;102017.13;5085683;28;20051;-51
2023/01/31 02:53:27;;;;;;;49.95;6.65;;;;;;;3.42;92.90;102004.50;5092237;28;20048;-50
2023/01/31 02:56:16;;;;;;;31.77;5.95;;;;;;;3.39;92.67;102003.78;5078150;28;20048;-50
2023/01/31 02:58:53;;;;;;;34.60;6.93;;;;;;;3.52;92.18;102004.03;5083227;28;20094;-50
2023/01/31 03:01:27;;;;;;;38.13;6.65;;;;;;;3.38;92.58;101992.44;5089412;28;20044;-51
2023/01/31 03:04:00;;;;;;;27.00;5.07;;;;;;;3.36;92.63;101996.91;5084114;28;20048;-49
2023/01/31 03:09:23;;;;;;;42.35;6.32;;;;;;;3.21;93.64;101989.81;5084254;27;20390;-50
2023/01/31 03:12:26;;;;;;;38.83;6.38;;;;;;;3.36;93.09;101988.19;5078566;28;20509;-51
2023/01/31 03:15:10;;;;;;;38.45;5.65;;;;;;;3.38;92.80;101986.34;5047906;28;20379;-50
2023/01/31 03:18:10;;;;;;;38.08;5.53;;;;;;;3.46;93.18;101986.81;5078065;28;20105;-52
2023/01/31 03:20:43;;;;;;;38.53;6.03;;;;;;;3.33;92.77;101978.72;5071296;28;20048;-50
2023/01/31 03:23:16;;;;;;;35.65;5.32;;;;;;;3.32;92.57;101971.75;5057178;28;20047;-50
2023/01/31 03:25:46;;;;;;;28.92;6.35;;;;;;;3.23;92.93;101977.47;5069423;28;20059;-51
2023/01/31 03:28:19;;;;;;;32.55;6.00;;;;;;;3.23;93.54;101964.34;5064427;28;20045;-51
2023/01/31 03:30:51;;;;;;;40.17;6.35;;;;;;;3.04;94.16;101969.66;5063608;28;20494;-52
2023/01/31 03:33:25;;;;;;;46.80;6.13;;;;;;;2.89;94.73;101958.13;5068990;28;20457;-52
2023/01/31 03:36:32;;;;;;;35.45;5.72;;;;;;;2.99;94.67;101961.19;5064145;28;20095;-50
2023/01/31 03:39:49;;;;;;;38.55;6.25;;;;;;;2.94;95.60;101953.53;5058260;28;20678;-52
2023/01/31 03:42:46;;;;;;;44.08;6.43;;;;;;;2.88;95.24;101956.47;5058074;28;20075;-50
2023/01/31 03:45:26;;;;;;;46.58;6.93;;;;;;;2.83;96.37;101953.19;5068062;28;20052;-51
2023/01/31 03:47:54;;;;;;;39.83;6.32;;;;;;;2.83;96.45;101956.66;5063021;28;20144;-50
2023/01/31 03:50:27;;;;;;;37.50;7.35;;;;;;;2.75;97.26;101963.19;5081997;28;20057;-50
2023/01/31 03:52:59;;;;;;;49.42;6.93;;;;;;;2.85;96.93;101969.69;5052613;28;20040;-50
2023/01/31 03:55:35;;;;;;;41.30;7.53;;;;;;;2.72;97.74;101960.75;5074328;28;20058;-54
2023/01/31 03:58:05;;;;;;;40.95;7.07;;;;;;;2.78;97.62;101966.50;5063810;28;20540;-52
2023/01/31 04:00:36;;;;;;;47.25;7.38;;;;;;;2.82;96.82;101951.50;5070156;28;20044;-49
2023/01/31 04:03:13;;;;;;;49.33;8.00;;;;;;;2.73;97.67;101944.94;5079786;28;20119;-52
2023/01/31 04:05:42;;;;;;;47.33;8.30;;;;;;;2.72;98.14;101950.25;5077988;28;20080;-49
2023/01/31 04:08:09;;;;;;;43.72;7.55;;;;;;;2.73;97.74;101951.94;5068894;28;20505;-51
2023/01/31 04:10:36;;;;;;;40.72;7.30;;;;;;;2.74;97.85;101948.41;5070240;28;20049;-51
2023/01/31 04:13:02;;;;;;;42.05;6.78;;;;;;;2.85;96.87;101941.72;5055374;28;20079;-49
2023/01/31 04:15:29;;;;;;;38.28;7.10;;;;;;;2.83;97.17;101938.31;5067891;28;20054;-53
2023/01/31 04:17:56;;;;;;;45.10;7.15;;;;;;;2.66;97.46;101933.91;5071174;28;20812;-51
2023/01/31 04:20:22;;;;;;;39.83;7.75;;;;;;;2.74;97.95;101938.75;5054687;28;20414;-51
2023/01/31 04:22:49;;;;;;;38.13;7.85;;;;;;;2.77;98.01;101932.53;5033302;28;20128;-50
2023/01/31 04:25:16;;;;;;;37.78;7.50;;;;;;;2.91;97.34;101932.72;5055091;28;20049;-50
2023/01/31 04:27:44;;;;;;;44.78;8.25;;;;;;;2.81;98.07;101921.81;5049941;28;20048;-51
2023/01/31 04:30:12;;;;;;;52.47;7.75;;;;;;;2.83;98.00;101929.63;5057801;28;20049;-52
2023/01/31 04:32:38;;;;;;;49.65;8.65;;;;;;;2.95;97.98;101928.16;5053853;28;20061;-51
2023/01/31 04:35:05;;;;;;;39.85;8.48;;;;;;;2.98;97.88;101933.25;5049602;28;20041;-52
2023/01/31 04:37:32;;;;;;;40.63;7.85;;;;;;;2.95;98.12;101931.66;5058033;28;20045;-51
2023/01/31 04:39:59;;;;;;;44.83;8.65;;;;;;;3.01;97.69;101928.72;5042924;28;20091;-52
2023/01/31 04:42:26;;;;;;;41.55;8.05;;;;;;;3.02;97.67;101927.78;5046041;28;20118;-51
2023/01/31 04:44:52;;;;;;;43.53;9.07;;;;;;;3.04;97.91;101930.34;5069917;28;20041;-51
2023/01/31 04:47:19;;;;;;;63.42;9.25;;;;;;;3.07;97.48;101933.66;5064225;28;20139;-51
2023/01/31 04:49:46;;;;;;;38.28;7.97;;;;;;;2.99;98.01;101937.59;5061905;28;20045;-51
2023/01/31 04:52:12;;;;;;;57.97;9.73;;;;;;;2.91;98.66;101922.25;5050508;28;20098;-52
2023/01/31 04:54:40;;;;;;;50.38;10.63;;;;;;;2.99;98.88;101925.31;5056549;28;20052;-52
2023/01/31 04:57:07;;;;;;;43.90;10.30;;;;;;;3.00;98.53;101927.03;5041285;28;20045;-51
2023/01/31 04:59:34;;;;;;;45.15;9.82;;;;;;;3.07;98.35;101925.81;5063566;28;20040;-52
2023/01/31 05:02:01;;;;;;;53.08;10.27;;;;;;;3.08;97.92;101924.84;5055587;28;20127;-51
2023/01/31 05:04:28;;;;;;;54.35;11.23;;;;;;;2.95;98.91;101931.66;5050497;28;20498;-52
2023/01/31 05:06:55;;;;;;;66.60;10.40;;;;;;;2.96;99.43;101927.25;5056665;28;20045;-50
2023/01/31 05:09:21;;;;;;;45.90;10.82;;;;;;;2.99;99.74;101914.84;5049644;28;20048;-51
2023/01/31 05:11:48;;;;;;;39.53;10.32;;;;;;;2.87;99.41;101887.47;5064923;28;20041;-50
2023/01/31 05:14:15;;;;;;;48.17;10.98;;;;;;;2.94;99.85;101914.19;5040125;28;20384;-52
2023/01/31 05:16:46;;;;;;;45.90;10.80;;;;;;;2.94;99.86;101900.25;5053361;28;20456;-52
2023/01/31 05:19:14;;;;;;;48.25;12.07;;;;;;;3.02;99.61;101904.19;5049068;28;20471;-52
2023/01/31 05:21:58;;;;;;;46.80;11.52;;;;;;;3.10;99.10;101903.81;5050206;28;20107;-50
2023/01/31 05:24:27;;;;;;;47.58;10.73;;;;;;;3.14;99.06;101904.50;5053061;28;20390;-50
2023/01/31 05:26:57;;;;;;;48.60;12.00;;;;;;;3.08;99.11;101901.25;5039592;28;20053;-52
2023/01/31 05:29:25;;;;;;;42.92;11.48;;;;;;;3.17;99.22;101899.94;5062144;28;20394;-50
2023/01/31 05:31:55;;;;;;;59.00;11.68;;;;;;;3.11;99.34;101897.66;5051476;28;20052;-52
2023/01/31 05:34:24;;;;;;;68.15;12.45;;;;;;;3.16;99.01;101902.66;5069864;28;20190;-53
2023/01/31 05:36:51;;;;;;;56.28;12.18;;;;;;;3.20;99.09;101902.44;5039587;28;20048;-53
2023/01/31 05:39:18;;;;;;;55.30;12.15;;;;;;;3.39;98.23;101907.56;5058609;28;20391;-52
2023/01/31 05:41:45;;;;;;;48.08;11.52;;;;;;;3.38;98.03;101910.28;5048343;28;20411;-52
2023/01/31 05:44:13;;;;;;;47.85;12.02;;;;;;;3.36;98.29;101899.84;5045856;28;20045;-52
2023/01/31 05:46:39;;;;;;;48.13;11.68;;;;;;;3.38;98.04;101907.66;5050114;28;20556;-51
2023/01/31 05:49:06;;;;;;;47.88;11.85;;;;;;;3.36;98.10;101896.38;5072122;28;20044;-51
2023/01/31 05:51:33;;;;;;;50.67;12.23;;;;;;;3.26;98.29;101890.78;5056196;28;20099;-53
2023/01/31 05:54:00;;;;;;;49.97;13.93;;;;;;;3.49;97.40;101897.44;5053689;28;20110;-51
2023/01/31 05:56:27;;;;;;;42.13;12.73;;;;;;;3.38;97.67;101892.75;5045595;28;20583;-51
2023/01/31 05:58:54;;;;;;;50.08;12.80;;;;;;;3.54;97.32;101890.19;5021807;28;20037;-51
2023/01/31 06:01:23;;;;;;;58.22;13.35;;;;;;;3.36;97.45;101885.91;5055799;28;20049;-53
2023/01/31 06:03:50;;;;;;;51.22;12.25;;;;;;;3.43;97.91;101884.66;5060048;28;20059;-51
2023/01/31 06:06:17;;;;;;;48.75;11.95;;;;;;;3.38;97.25;101884.88;5058671;28;20124;-52
2023/01/31 06:08:44;;;;;;;52.47;12.40;;;;;;;3.33;97.75;101879.03;5044456;28;20384;-53
2023/01/31 06:11:11;;;;;;;48.38;11.73;;;;;;;3.37;97.64;101864.00;5053255;28;20098;-50
2023/01/31 06:13:43;;;;;;;47.38;11.75;;;;;;;3.36;97.91;101859.66;5040529;28;20084;-52
2023/01/31 06:16:11;;;;;;;50.97;12.57;;;;;;;3.25;98.12;101865.47;5051705;28;20095;-51
2023/01/31 06:18:38;;;;;;;56.05;12.25;;;;;;;3.40;97.56;101846.31;5048078;28;20048;-49
2023/01/31 06:21:05;;;;;;;55.92;12.68;;;;;;;3.41;97.48;101847.16;5052761;28;20144;-51
2023/01/31 06:23:33;;;;;;;49.63;11.60;;;;;;;3.38;97.71;101860.44;5046935;28;20080;-52
2023/01/31 06:26:00;;;;;;;48.67;12.43;;;;;;;3.41;97.80;101855.88;5060571;28;20040;-51
2023/01/31 06:28:26;;;;;;;57.17;12.10;;;;;;;3.43;97.37;101858.41;5041839;28;20037;-51
2023/01/31 06:30:53;;;;;;;58.75;11.70;;;;;;;3.51;97.27;101858.00;5047108;28;20399;-51
2023/01/31 06:33:20;;;;;;;50.72;10.85;;;;;;;3.50;97.21;101857.16;5051878;28;20141;-52
2023/01/31 06:35:52;;;;;;;49.15;11.93;;;;;;;3.51;97.39;101868.50;5059935;28;20396;-51
2023/01/31 06:38:18;;;;;;;40.28;10.00;;;;;;;3.54;96.60;101871.81;5042293;28;20096;-51
2023/01/31 06:40:45;;;;;;;59.53;12.10;;;;;;;3.40;97.25;101875.19;5065720;28;20040;-51
2023/01/31 06:43:12;;;;;;;53.80;11.23;;;;;;;3.47;96.95;101873.06;5048744;28;20099;-51
2023/01/31 06:45:41;;;;;;;53.90;11.70;;;;;;;3.44;96.87;101892.44;5052041;28;20049;-51
2023/01/31 06:48:08;;;;;;;50.20;9.95;;;;;;;3.43;96.93;101892.53;5045130;28;20044;-52
2023/01/31 06:50:35;;;;;;;48.55;10.10;;;;;;;3.46;96.56;101885.34;5043375;28;20470;-50
2023/01/31 06:53:01;;;;;;;46.60;10.45;;;;;;;3.50;96.50;101869.44;5049016;28;20090;-51
2023/01/31 06:55:28;;;;;;;41.03;9.32;;;;;;;3.57;96.13;101884.78;5049652;28;20077;-51
2023/01/31 06:57:55;;;;;;;50.42;11.57;;;;;;;3.69;95.50;101891.13;5038701;28;20098;-51
2023/01/31 07:00:24;;;;;;;45.15;9.98;;;;;;;3.67;95.12;101886.91;5050418;28;20052;-50
2023/01/31 07:02:51;;;;;;;51.42;9.07;;;;;;;3.48;95.61;101894.91;5050552;28;20125;-51
2023/01/31 07:05:19;;;;;;;49.10;9.68;;;;;;;3.50;95.39;101885.19;5055093;28;20057;-52
2023/01/31 07:07:47;;;;;;;46.88;9.63;;;;;;;3.58;95.47;101893.50;5038964;28;20052;-51
2023/01/31 07:10:14;;;;;;;50.50;9.63;;;;;;;3.51;95.69;101882.50;5048591;28;20052;-51
2023/01/31 07:12:41;;;;;;;49.25;9.65;;;;;;;3.52;95.88;101892.03;5047386;28;20564;-51
2023/01/31 07:15:10;;;;;;;50.00;10.02;;;;;;;3.48;95.32;101897.53;5040892;28;20113;-51
2023/01/31 07:17:36;;;;;;;34.75;8.32;;;;;;;3.57;95.60;101887.41;5048200;28;20087;-50
2023/01/31 07:20:04;;;;;;;39.53;9.27;;;;;;;3.59;94.41;101884.69;5046866;28;20047;-50
2023/01/31 07:22:31;;;;;;;34.53;8.57;;;;;;;3.62;95.01;101888.00;5046878;28;20063;-51
2023/01/31 07:24:58;;;;;;;35.63;7.47;;;;;;;3.56;94.62;101875.19;5040013;28;20396;-50
2023/01/31 07:27:24;;;;;;;34.03;8.27;;;;;;;3.60;94.98;101874.13;5043852;28;20110;-50
2023/01/31 07:29:51;;;;;;;33.50;7.05;;;;;;;3.66;94.20;101865.09;4994780;28;20148;-49
2023/01/31 07:32:18;;;;;;;39.60;8.65;;;;;;;3.62;94.12;101853.03;5048407;28;20098;-50
2023/01/31 07:34:45;;;;;;;50.28;8.00;;;;;;;3.73;93.83;101855.09;5048724;28;20055;-52
2023/01/31 07:37:12;;;;;;;36.95;6.60;;;;;;;3.65;93.18;101845.84;5043940;28;20110;-51
2023/01/31 07:39:39;;;;;;;32.42;6.85;;;;;;;3.66;93.25;101825.72;5047296;28;20041;-53
2023/01/31 07:42:05;;;;;;;37.13;7.45;;;;;;;3.79;93.00;101858.22;5060123;28;20095;-52
2023/01/31 07:44:32;;;;;;;30.05;7.20;;;;;;;3.77;92.84;101854.84;5032906;28;20758;-51
2023/01/31 07:46:59;;;;;;;36.05;7.53;;;;;;;3.72;92.91;101864.75;5040706;28;20070;-52
2023/01/31 07:49:26;;;;;;;37.75;7.55;;;;;;;3.76;92.96;101858.38;5039539;28;20044;-50
2023/01/31 07:51:52;;;;;;;36.28;7.57;;;;;;;3.80;92.97;101846.81;5051120;28;20056;-51
2023/01/31 07:54:19;;;;;;;28.67;6.88;;;;;;;3.79;92.34;101846.91;5025564;28;20053;-51
2023/01/31 07:56:46;;;;;;;37.33;7.70;;;;;;;3.94;92.25;101850.47;5052124;28;20495;-51
2023/01/31 07:59:13;;;;;;;37.95;8.05;;;;;;;3.92;91.80;101853.16;5046275;28;20522;-52
2023/01/31 08:04:27;;;;;;;26.48;6.38;;;;;;;3.92;92.00;101868.06;5069376;28;20040;-51
2023/01/31 08:06:55;;;;;;;35.20;6.82;;;;;;;4.07;91.37;101855.88;5060801;28;20091;-50
2023/01/31 08:09:23;;;;;;;33.95;6.07;;;;;;;4.03;91.52;101842.06;5051529;28;20036;-50
2023/01/31 08:11:50;;;;;;;28.83;6.40;;;;;;;4.15;90.77;101854.53;5040792;28;20052;-52
2023/01/31 08:14:19;;;;;;;27.77;6.50;;;;;;;4.06;90.74;101843.66;5047927;28;20045;-52
2023/01/31 08:16:46;;;;;;;31.63;6.20;;;;;;;4.02;90.51;101841.25;5066073;28;20040;-51
2023/01/31 08:19:13;;;;;;;27.88;5.95;;;;;;;4.09;90.41;101833.00;5058195;28;20576;-51
2023/01/31 08:21:39;;;;;;;33.83;5.70;;;;;;;4.16;90.29;101819.44;5056785;28;20531;-51
2023/01/31 08:24:06;;;;;;;38.90;7.22;;;;;;;4.13;89.96;101829.28;5064485;28;20048;-52
2023/01/31 08:26:34;;;;;;;30.77;5.47;;;;;;;4.29;89.30;101837.97;5035425;28;20045;-53
2023/01/31 08:29:00;;;;;;;32.63;5.88;;;;;;;4.26;89.25;101827.66;5057184;28;20055;-53
2023/01/31 08:31:27;;;;;;;32.25;5.80;;;;;;;4.26;89.45;101819.78;5044412;28;20038;-53
2023/01/31 08:33:56;;;;;;;30.33;6.03;;;;;;;4.42;89.09;101817.13;5045403;28;20040;-54
2023/01/31 08:36:26;;;;;;;24.63;5.70;;;;;;;4.45;88.24;101824.84;5037996;28;20506;-53
2023/01/31 08:38:53;;;;;;;27.70;5.22;;;;;;;4.48;88.08;101831.72;5050895;28;20044;-53
2023/01/31 08:41:21;;;;;;;26.42;5.55;;;;;;;4.41;88.00;101816.28;5036862;28;20448;-54
2023/01/31 08:43:50;;;;;;;28.55;6.25;;;;;;;4.40;87.63;101816.34;5048406;28;20040;-52
2023/01/31 08:46:24;;;;;;;30.55;5.55;;;;;;;4.45;87.85;101810.84;5033265;28;20059;-52
2023/01/31 08:48:51;;;;;;;29.17;5.10;;;;;;;4.41;88.38;101831.19;5048362;28;20134;-51
2023/01/31 08:51:18;;;;;;;28.27;5.72;;;;;;;4.38;89.09;101826.97;5058145;28;20048;-52
2023/01/31 08:53:45;;;;;;;35.28;5.95;;;;;;;4.40;89.69;101819.00;5052751;28;20040;-53
2023/01/31 08:56:13;;;;;;;30.30;5.68;;;;;;;4.46;90.57;101834.41;5051446;28;20738;-50
2023/01/31 08:58:41;;;;;;;42.85;5.22;;;;;;;4.34;92.32;101824.59;5050375;28;20477;-51
2023/01/31 09:01:12;;;;;;;25.60;5.22;;;;;;;4.35;93.38;101826.31;5036705;28;20178;-51
2023/01/31 09:03:39;;;;;;;29.55;5.38;;;;;;;4.30;95.53;101820.47;5063895;28;20136;-51
2023/01/31 09:06:10;;;;;;;40.67;5.85;;;;;;;4.30;96.03;101804.69;5058471;28;20041;-50
2023/01/31 09:08:36;;;;;;;34.47;5.57;;;;;;;4.34;95.35;101795.69;5054098;28;20041;-50
2023/01/31 09:11:04;;;;;;;31.88;5.20;;;;;;;4.20;96.54;101784.22;5036293;28;20103;-50
2023/01/31 09:13:32;;;;;;;38.28;5.18;;;;;;;4.19;97.24;101786.94;5038983;28;20396;-52
2023/01/31 09:16:03;;;;;;;28.80;5.40;;;;;;;4.23;96.52;101777.94;5038132;28;20088;-50
2023/01/31 09:18:32;;;;;;;25.67;5.43;;;;;;;4.25;96.81;101768.19;5042667;28;20518;-52
2023/01/31 09:21:17;;;;;;;31.15;6.38;;;;;;;4.32;97.53;101764.25;5070592;28;20048;-49
2023/01/31 09:23:44;;;;;;;43.35;5.70;;;;;;;4.37;97.44;101775.34;5034066;28;20131;-49
2023/01/31 09:26:12;;;;;;;36.63;5.95;;;;;;;4.45;97.57;101768.81;5048867;28;20132;-56
2023/01/31 09:28:41;;;;;;;27.05;4.97;;;;;;;4.53;96.93;101767.44;5046966;28;20053;-52
2023/01/31 09:31:11;;;;;;;33.80;6.30;;;;;;;4.52;97.34;101778.03;5038569;28;20045;-52
2023/01/31 09:33:39;;;;;;;29.00;5.57;;;;;;;4.49;96.40;101772.94;5050676;28;20626;-52
2023/01/31 09:36:08;;;;;;;38.17;5.53;;;;;;;4.52;97.31;101773.63;5053569;28;20049;-52
2023/01/31 09:38:36;;;;;;;29.70;5.30;;;;;;;4.53;96.49;101762.19;5072223;28;20048;-53
2023/01/31 09:41:13;;;;;;;33.22;6.45;;;;;;;4.53;97.18;101764.81;5061318;28;20064;-51
2023/01/31 09:43:44;;;;;;;31.95;5.32;;;;;;;4.56;97.41;101751.47;5059874;28;20071;-49
2023/01/31 09:46:15;;;;;;;;;;;;;;;4.68;96.01;101759.59;5047397;28;20098;-50
2023/01/31 09:48:46;;;;;;;28.52;5.28;;;;;;;4.76;95.82;101752.91;5028604;28;20362;-50
2023/01/31 09:51:15;;;;;;;25.50;5.20;;;;;;;4.75;94.58;101756.50;5033888;28;20053;-51
2023/01/31 09:53:43;;;;;;;26.88;4.95;;;;;;;4.76;94.68;101758.16;5064502;28;20048;-51
2023/01/31 09:56:41;;;;;;;36.50;5.32;;;;;;;4.79;94.76;101765.88;5045106;28;20056;-50
2023/01/31 09:59:22;;;;;;;22.58;5.25;;;;;;;4.66;94.52;101770.19;5042396;28;20552;-51
2023/01/31 10:02:15;;;;;;;26.10;5.22;;;;;;;4.76;95.27;101762.59;5034605;28;20199;-50
2023/01/31 10:05:02;;;;;;;19.42;5.10;;;;;;;4.84;94.36;101760.38;5052676;28;20049;-50
2023/01/31 10:07:35;;;;;;;36.00;5.60;;;;;;;4.94;94.55;101750.97;5049817;28;20053;-51
2023/01/31 10:10:27;;;;;;;27.77;5.65;;;;;;;4.90;94.75;101760.00;5056836;28;20483;-53
2023/01/31 10:13:00;;;;;;;26.13;5.20;;;;;;;4.76;95.66;101754.72;5033694;28;20485;-50
2023/01/31 10:15:55;;;;;;;29.23;4.78;;;;;;;4.66;96.88;101745.66;5061523;28;20045;-50
2023/01/31 10:18:31;;;;;;;28.20;5.45;;;;;;;4.69;98.80;101735.81;5039733;28;20170;-50
2023/01/31 10:21:05;;;;;;;35.58;6.20;;;;;;;4.76;97.31;101736.31;5037802;28;20498;-51
2023/01/31 10:23:39;;;;;;;24.85;5.93;;;;;;;4.76;97.40;101724.00;5063105;28;20384;-50
2023/01/31 10:26:12;;;;;;;30.50;5.43;;;;;;;4.75;96.70;101726.75;5046813;28;20102;-50
2023/01/31 10:29:03;;;;;;;27.27;5.78;;;;;;;4.89;95.94;101725.91;5047765;28;20056;-49
2023/01/31 10:31:53;;;;;;;29.25;5.40;;;;;;;4.94;96.58;101708.91;5062211;28;20468;-52
2023/01/31 10:34:27;;;;;;;33.40;5.95;;;;;;;4.90;96.80;101696.03;5043993;28;20445;-51
2023/01/31 10:37:11;;;;;;;37.92;7.32;;;;;;;5.12;97.46;101683.25;5051561;28;20121;-50
2023/01/31 10:39:45;;;;;;;21.35;6.50;;;;;;;5.09;95.81;101695.75;5057437;28;20159;-51
2023/01/31 10:42:27;;;;;;;33.33;6.40;;;;;;;5.13;96.60;101684.94;5051067;28;20407;-51
2023/01/31 10:45:00;;;;;;;33.50;6.50;;;;;;;5.11;95.60;101688.59;5020709;28;20392;-50
2023/01/31 10:47:33;;;;;;;27.55;6.43;;;;;;;5.11;96.06;101689.47;5037178;28;20053;-50
2023/01/31 10:50:10;;;;;;;27.48;6.55;;;;;;;5.12;97.06;101683.25;5040548;28;20412;-50
2023/01/31 10:52:55;;;;;;;29.88;6.65;;;;;;;5.17;96.45;101678.56;5052243;28;20490;-51
2023/01/31 10:58:12;;;;;;;27.92;5.97;;;;;;;5.21;96.22;101676.56;5094085;27;20881;-52
2023/01/31 11:00:39;;;;;;;27.95;6.65;;;;;;;5.37;97.63;101669.41;5069437;28;20047;-52
2023/01/31 11:03:05;;;;;;;25.77;6.88;;;;;;;5.40;95.57;101663.09;5047221;28;20123;-51
2023/01/31 11:05:39;;;;;;;33.47;7.75;;;;;;;5.31;95.92;101661.03;5058674;28;20688;-51
2023/01/31 11:08:23;;;;;;;27.92;6.63;;;;;;;5.31;96.22;101677.69;5074862;28;20496;-50
2023/01/31 11:10:53;;;;;;;18.42;6.30;;;;;;;5.23;96.58;101673.84;5048482;28;20048;-52
2023/01/31 11:13:21;;;;;;;25.83;6.97;;;;;;;5.27;95.70;101665.66;5069433;28;20044;-51
2023/01/31 11:15:51;;;;;;;32.17;7.40;;;;;;;5.30;96.08;101672.53;5060456;28;20570;-51
2023/01/31 11:18:44;;;;;;;31.92;8.77;;;;;;;5.16;96.82;101666.31;5064335;28;20052;-51
2023/01/31 11:21:20;;;;;;;32.08;8.15;;;;;;;5.11;97.33;101668.44;5065102;28;20041;-53
2023/01/31 11:23:48;;;;;;;27.35;6.80;;;;;;;5.15;96.94;101669.06;5068536;28;20049;-51
2023/01/31 11:26:26;;;;;;;26.95;7.35;;;;;;;5.18;97.37;101668.88;5064190;28;20041;-51
2023/01/31 11:28:54;;;;;;;33.35;8.55;;;;;;;5.21;96.78;101673.09;5055187;28;20045;-50
2023/01/31 11:31:30;;;;;;;28.17;7.97;;;;;;;5.19;97.49;101667.94;5062173;28;20372;-52
2023/01/31 11:34:00;;;;;;;31.92;7.75;;;;;;;5.22;97.27;101648.47;5067622;28;20052;-52
2023/01/31 11:36:32;;;;;;;32.28;8.10;;;;;;;5.10;97.51;101636.94;5068083;28;20047;-52
2023/01/31 11:39:16;;;;;;;32.13;7.60;;;;;;;5.21;98.07;101634.47;5021103;28;20045;-52
2023/01/31 11:41:47;;;;;;;28.75;7.75;;;;;;;5.26;97.16;101642.09;5064978;28;20048;-51
2023/01/31 11:44:16;;;;;;;34.47;8.10;;;;;;;5.22;97.39;101645.84;5068078;28;20068;-52
2023/01/31 11:46:50;;;;;;;27.55;7.25;;;;;;;5.33;96.93;101644.22;5065814;28;20045;-52
2023/01/31 11:49:39;;;;;;;27.27;7.55;;;;;;;5.30;97.68;101635.69;5047019;28;20289;-53
2023/01/31 11:52:28;;;;;;;19.92;7.68;;;;;;;5.39;96.61;101638.56;5062631;28;20071;-51
2023/01/31 11:55:00;;;;;;;29.92;7.70;;;;;;;5.29;97.21;101618.19;5066381;28;20059;-51
2023/01/31 11:57:32;;;;;;;28.50;8.20;;;;;;;5.34;97.61;101614.31;5083439;28;20095;-52